Share

Des Lacs, ND

7:44 AM CDT on April 24, 2014 (GMT -0500)
Eagle's Landing (KNDMINOT20) Elev 1726 ft | 48.25 °N, 101.33 °W | Change Station

Current weather conditions updated 1 second ago

Clear
Clear
39.4 °F
Feels Like 36 °F
N
5.1
Wind Variable Wind from West
Gusts 7.6 mph
Sunrise 6:39 AM
Sunset 8:50 PM
Moon Waning Crescent

Today is forecast to be Warmer than yesterday.

Pressure 29.69 in
Visibility 10.0 miles
Clouds Clear
Windchill 36 °F
Dew Point 35 °F
Humidity 84%
Rainfall 0.00 in
Snow Depth Not available.
UV 0 out of 16
Pollen 9.10 out of 12
Air Quality Not available.
Flu Activity Sporadic
METAR KMOT 241154Z 24009KT 10SM CLR 04/M02 A2965 RMK AO2 SLP052 70040 T00391017 10056 20033 56004

More Conditions Fewer Conditions

Pressure 29.69 in
Visibility 10.0 miles
Clouds Clear
Windchill 36 °F
Dew Point 35 °F
Humidity 84%
Rainfall 0.00 in
Snow Depth Not available.
UV 0 out of 16
Pollen 9.10 out of 12
Air Quality Not available.
Flu Activity Sporadic
METAR KMOT 241154Z 24009KT 10SM CLR 04/M02 A2965 RMK AO2 SLP052 70040 T00391017 10056 20033 56004

More Conditions Fewer Conditions

10-Day Weather Forecast

Almanac

Astronomy

Apr. 24, 2014 Rise Set
Actual Time 6:39 AM CDT 8:50 PM CDT
Civil Twilight 6:05 AM CDT 9:24 PM CDT
Nautical Twilight 5:23 AM CDT 10:06 PM CDT
Astronomical Twilight 4:36 AM CDT 10:54 PM CDT
Moon 4:15 AM CDT 3:46 PM CDT
Length of Visible Light 15h 18m
Length of Day
14h 10m
Tomorrow will be 3m 14s longer.
Waning Crescent, 26% of the Moon is Illuminated
Today
Waning Crescent
Apr 29
New
May 6
First Quarter
May 14
Full
May 21
Last Quarter

Today's Extremes

State Highs State Lows

Community

  • Stacked
    Stacked
  • clouds approaching Red Sox Nation
    clouds approaching Red Sox Nation
  • Balance
    Balance
  • Nestled In
    Nestled In
  • Stunning Sunrise
    Stunning Sunrise

WunderPhotos

Upload Photos

1,704,594 photos uploaded!

Nearby

Snow Depth

Station Depth Elevation
No new snow has been reported.

Coastal Water Temperatures

Place Temperature
No Stations Reporting

Earthquake Activity

City Distance Mag. Time & Date
No recent earthquake activity has been reported nearby.
Minimum magnitude displayed is 2.5.

Nearby Weather Stations

Station Location Temp. Windchill Dew Point Humidity Wind Precip. Elev Updated Type
Eagle's Landing, Minot, ND 39.4 °F 36 °F 35 °F 84% West  at  5.1 mph 0.00 in / hr 1726 ft 7:44 AM CDT Rapid Fire
Edgeview Estates, Minot, ND 40.4 °F 34 °F 32 °F 72% WSW  at  11.0 mph 0.00 in / hr 1752 ft 7:44 AM CDT Rapid Fire
Dakota Park South Minot, Minot, ND 39.9 °F 37 °F 36 °F 85% West  at  4.5 mph 0.00 in / hr 1750 ft 7:44 AM CDT Rapid Fire
South Prairie, Ward County, Sawyer, ND 40.1 °F 31 °F 36 °F 85% West  at  18.3 mph 0.00 in / hr 2000 ft 7:44 AM CDT Rapid Fire

Show More Stations Show Fewer Stations

What do you think?

We're not finished. Please let us know what you like, what you don't like, and what you are still missing.